Time;durP1;ratioP1;P1;durP2;ratioP2;P2;SDS_P1;SDS_P2;PMS_P1;PMS_P2;Temp;Humidity;BMP_temperature;BMP_pressure;BME280_temperature;BME280_humidity;BME280_pressure;Samples;Min_cycle;Max_cycle;Signal;HPM_P1;HPM_P2
2023/03/28 00:00:24;;;;;;;7.90;4.40;;;-1.20;1.00;-0.90;94678.00;;;;7393782;19;20529;-77
2023/03/28 00:02:52;;;;;;;7.77;4.23;;;;;-0.80;94684.00;;;;7399884;19;20179;-77
2023/03/28 00:05:33;;;;;;;6.60;4.70;;;;;-0.80;94688.00;;;;7399828;19;20171;-77
2023/03/28 00:08:07;;;;;;;9.27;4.30;;;;;-0.70;94689.00;;;;7400717;19;20136;-77
2023/03/28 00:10:42;;;;;;;6.50;4.30;;;;;-0.80;94693.00;;;;7401130;19;20725;-77
2023/03/28 00:13:12;;;;;;;6.83;4.00;;;;;-0.80;94698.00;;;;7401642;19;20164;-77
2023/03/28 00:15:47;;;;;;;7.13;4.30;;;;;-0.80;94689.00;;;;7401269;19;20131;-77
2023/03/28 00:18:14;;;;;;;5.67;3.63;;;;;-1.00;94684.00;;;;7402913;19;20444;-78
2023/03/28 00:20:49;;;;;;;6.97;3.90;;;;;-1.10;94694.00;;;;7401049;19;20129;-78
2023/03/28 00:23:23;;;;;;;8.03;3.90;;;;;-1.30;94696.00;;;;7401266;19;20140;-78
2023/03/28 00:26:03;;;;;;;6.20;3.63;;;-1.70;1.00;-1.30;94697.00;;;;7403493;19;20141;-78
2023/03/28 00:28:30;;;;;;;6.07;3.20;;;-1.30;1.00;-1.30;94698.00;;;;7402046;19;20175;-78
2023/03/28 00:31:11;;;;;;;5.90;3.50;;;-1.50;1.00;-1.30;94709.00;;;;7402396;19;20148;-78
2023/03/28 00:33:48;;;;;;;7.20;3.60;;;-1.60;1.00;-1.30;94669.00;;;;7401696;19;20611;-78
2023/03/28 00:36:25;;;;;;;12.50;4.53;;;-1.60;1.00;-1.40;94672.00;;;;7402838;19;20612;-78
2023/03/28 00:39:05;;;;;;;5.90;4.40;;;-1.60;1.00;-1.30;94700.00;;;;7401020;19;20137;-78
2023/03/28 00:41:41;;;;;;;9.13;4.20;;;-1.60;1.00;-1.30;94715.00;;;;7403652;19;20141;-77
2023/03/28 00:44:51;;;;;;;8.10;4.07;;;-1.60;1.00;-1.30;94705.00;;;;7401905;19;20153;-77
2023/03/28 00:47:40;;;;;;;6.33;3.73;;;-1.60;1.00;-1.30;94677.00;;;;7401464;19;20121;-78
2023/03/28 00:50:26;;;;;;;5.60;3.70;;;-1.60;1.00;-1.30;94712.00;;;;7401041;19;20160;-78
2023/03/28 00:53:12;;;;;;;6.83;3.80;;;-1.60;1.00;-1.40;94719.00;;;;7401537;19;20492;-78
2023/03/28 00:55:56;;;;;;;6.23;4.00;;;-1.70;1.00;-1.50;94707.00;;;;7401534;19;20149;-78
2023/03/28 00:58:30;;;;;;;6.47;3.40;;;-1.80;1.00;-1.60;94718.00;;;;7402175;19;20128;-77
2023/03/28 01:01:04;;;;;;;7.80;3.90;;;-1.90;1.00;-1.70;94713.00;;;;7398388;19;20528;-77
2023/03/28 01:03:34;;;;;;;5.77;3.97;;;-2.00;1.00;-1.80;94677.00;;;;7399647;19;20512;-77
2023/03/28 01:06:20;;;;;;;7.27;4.07;;;-2.00;36.50;-1.80;94728.00;;;;7400920;19;20168;-77
2023/03/28 01:08:56;;;;;;;8.27;3.67;;;-2.00;99.90;-1.90;94724.00;;;;7401996;19;20477;-77
2023/03/28 01:11:31;;;;;;;8.90;4.53;;;-2.10;99.90;-1.90;94729.00;;;;7398659;19;20159;-77
2023/03/28 01:14:08;;;;;;;12.27;4.00;;;-2.20;99.90;-1.90;94729.00;;;;7402322;19;20624;-77
2023/03/28 01:16:40;;;;;;;6.53;4.07;;;-2.20;99.90;-2.00;94703.00;;;;7401520;19;20622;-77
2023/03/28 01:19:25;;;;;;;5.73;3.80;;;-2.20;99.90;-2.00;94733.00;;;;7399414;19;20141;-77
2023/03/28 01:22:44;;;;;;;7.40;4.00;;;-2.30;99.90;-2.00;94728.00;;;;7400532;19;20152;-77
2023/03/28 01:25:50;;;;;;;9.93;4.37;;;-2.30;1.00;-2.20;94706.00;;;;7398902;19;20648;-77
2023/03/28 01:28:58;;;;;;;7.10;3.50;;;-2.40;1.00;-2.40;94723.00;;;;7401096;19;20154;-77
2023/03/28 01:32:10;;;;;;;8.27;3.93;;;-2.50;1.00;-2.40;94731.00;;;;7399194;19;20148;-77
2023/03/28 01:35:14;;;;;;;5.50;3.60;;;-2.60;99.90;-2.50;94730.00;;;;7400961;19;20125;-77
2023/03/28 01:38:12;;;;;;;5.13;3.63;;;-2.70;99.90;-2.50;94735.00;;;;7402469;19;20136;-77
2023/03/28 01:41:04;;;;;;;10.27;3.87;;;-2.70;99.90;-2.50;94725.00;;;;7399474;19;20117;-77
2023/03/28 01:43:50;;;;;;;6.67;3.77;;;-2.80;1.00;-2.50;94739.00;;;;7399743;19;20501;-77
2023/03/28 01:46:38;;;;;;;6.73;3.87;;;-2.80;1.00;-2.60;94732.00;;;;7399500;19;20147;-77
2023/03/28 01:49:36;;;;;;;12.63;3.77;;;-2.90;1.00;-2.80;94703.00;;;;7398261;19;20149;-77
2023/03/28 01:52:19;;;;;;;10.70;4.13;;;-3.00;1.00;-2.60;94727.00;;;;7399745;19;20474;-77
2023/03/28 01:55:08;;;;;;;7.67;3.33;;;-3.00;1.00;-2.60;94737.00;;;;7399824;19;20489;-77
2023/03/28 01:58:27;;;;;;;7.37;3.93;;;-2.90;1.00;-2.70;94731.00;;;;7399297;19;20499;-77
2023/03/28 02:01:21;;;;;;;7.13;4.33;;;-2.90;1.00;-2.60;94731.00;;;;7396787;19;20124;-77
2023/03/28 02:04:04;;;;;;;5.87;4.17;;;-2.90;1.00;-2.60;94733.00;;;;7399878;19;20598;-77
2023/03/28 02:06:55;;;;;;;6.43;4.13;;;-2.90;1.00;-2.50;94692.00;;;;7397582;19;20610;-77
2023/03/28 02:09:31;;;;;;;10.33;4.23;;;-2.80;1.00;-2.50;94690.00;;;;7398998;19;20482;-77
2023/03/28 02:12:09;;;;;;;7.20;4.43;;;-2.90;1.00;-2.60;94726.00;;;;7398855;19;20144;-78
2023/03/28 02:14:45;;;;;;;9.07;3.93;;;-2.90;1.00;-2.60;94726.00;;;;7399800;19;20475;-77
2023/03/28 02:17:22;;;;;;;9.43;4.83;;;-2.90;1.00;-2.60;94731.00;;;;7398701;19;20609;-78
2023/03/28 02:19:59;;;;;;;12.07;4.40;;;-2.80;3.20;-2.60;94732.00;;;;7398436;19;20199;-77
2023/03/28 02:22:59;;;;;;;6.87;4.03;;;-2.90;1.00;-2.60;94734.00;;;;7398339;19;20176;-77
2023/03/28 02:25:26;;;;;;;10.47;3.93;;;-2.90;1.00;-2.70;94711.00;;;;7399840;19;20144;-77
2023/03/28 02:28:05;;;;;;;7.97;4.73;;;-2.90;25.90;-2.70;94707.00;;;;7398789;19;20135;-77
2023/03/28 02:30:34;;;;;;;8.87;4.43;;;-2.90;39.20;-2.80;94696.00;;;;7399544;19;20148;-77
2023/03/28 02:33:37;;;;;;;9.17;4.87;;;-3.00;49.80;-2.90;94723.00;;;;7399072;19;20152;-76
2023/03/28 02:36:16;;;;;;;6.20;4.37;;;-3.00;65.20;-2.90;94727.00;;;;7399621;19;20164;-77
2023/03/28 02:39:33;;;;;;;9.03;4.57;;;-3.10;98.50;-3.10;94733.00;;;;7397624;19;20132;-77
2023/03/28 02:42:06;;;;;;;10.80;4.73;;;-3.20;99.90;-3.00;94722.00;;;;7398982;19;20155;-77
2023/03/28 02:45:05;;;;;;;8.67;3.97;;;-3.20;99.90;-3.00;94672.00;;;;7398076;19;20155;-77
2023/03/28 02:48:13;;;;;;;13.40;4.63;;;-3.30;99.90;-3.00;94725.00;;;;7397865;19;20158;-76
2023/03/28 02:51:33;;;;;;;8.10;4.80;;;-3.30;99.90;-3.10;94723.00;;;;7396487;19;20171;-77
2023/03/28 02:54:23;;;;;;;11.27;4.50;;;-3.30;99.90;-3.20;94698.00;;;;7398132;19;20128;-77
2023/03/28 02:57:37;;;;;;;12.13;4.83;;;-3.40;99.90;-3.30;94729.00;;;;7397427;19;20563;-77
2023/03/28 03:00:17;;;;;;;8.93;4.57;;;-3.50;99.90;-3.30;94721.00;;;;7396023;19;20790;-77
2023/03/28 03:02:51;;;;;;;7.73;4.90;;;-3.60;99.90;-3.10;94725.00;;;;7398541;19;20649;-77
2023/03/28 03:05:25;;;;;;;9.97;4.93;;;-3.40;99.90;-3.10;94671.00;;;;7396567;19;20635;-76
2023/03/28 03:08:06;;;;;;;9.03;5.70;;;-3.40;99.90;-3.00;94705.00;;;;7398690;19;20149;-77
2023/03/28 03:10:40;;;;;;;13.27;5.60;;;-3.30;99.90;-3.00;94718.00;;;;7396825;19;20168;-77
2023/03/28 03:13:07;;;;;;;9.70;4.70;;;-3.30;99.90;-3.20;94724.00;;;;7397535;19;20143;-77
2023/03/28 03:15:41;;;;;;;15.30;5.87;;;-3.40;99.90;-3.30;94723.00;;;;7398774;19;20602;-76
2023/03/28 03:18:08;;;;;;;11.63;5.23;;;-3.50;99.90;-3.40;94716.00;;;;7397818;19;20139;-76
2023/03/28 03:20:44;;;;;;;9.77;5.63;;;-3.70;99.90;-3.40;94707.00;;;;7396596;19;20152;-77
2023/03/28 03:23:18;;;;;;;11.10;5.20;;;-3.70;99.90;-3.40;94685.00;;;;7396611;19;20128;-76
2023/03/28 03:25:52;;;;;;;13.70;5.50;;;-3.80;99.90;-3.40;94696.00;;;;7397030;19;20626;-76
2023/03/28 03:28:26;;;;;;;11.97;5.57;;;-3.80;99.90;-3.40;94697.00;;;;7398206;19;20625;-77
2023/03/28 03:31:00;;;;;;;8.93;5.17;;;-3.80;99.90;-3.30;94701.00;;;;7396569;19;20151;-76
2023/03/28 03:33:28;;;;;;;14.50;5.80;;;;;-3.20;94702.00;;;;7397707;19;20462;-77
2023/03/28 03:36:03;;;;;;;9.57;4.97;;;;;-3.20;94698.00;;;;7400105;19;20175;-77
2023/03/28 03:38:31;;;;;;;17.03;5.37;;;;;-3.10;94707.00;;;;7403306;19;20159;-77
2023/03/28 03:41:04;;;;;;;13.10;6.30;;;-3.50;99.90;-3.00;94707.00;;;;7402004;19;20622;-77
2023/03/28 03:43:33;;;;;;;13.30;5.23;;;-3.20;1.00;-3.20;94699.00;;;;7403855;19;20486;-77
2023/03/28 03:46:07;;;;;;;13.13;5.13;;;-3.20;1.00;-3.20;94707.00;;;;7405505;19;20468;-77
2023/03/28 03:48:41;;;;;;;12.37;5.40;;;-3.40;99.90;-3.30;94699.00;;;;7405018;19;20124;-76
2023/03/28 03:51:16;;;;;;;14.67;5.80;;;-3.40;99.90;-3.30;94711.00;;;;7403923;19;20132;-77
2023/03/28 03:53:51;;;;;;;9.33;4.43;;;-3.50;99.90;-3.40;94690.00;;;;7404718;19;20140;-76
2023/03/28 03:56:25;;;;;;;13.70;5.57;;;-3.60;99.90;-3.60;94693.00;;;;7403887;19;20206;-77
2023/03/28 03:58:59;;;;;;;13.63;5.57;;;-3.80;99.90;-3.60;94710.00;;;;7404764;19;20136;-77
2023/03/28 04:01:28;;;;;;;10.43;4.83;;;-3.90;99.90;-3.60;94701.00;;;;7400587;19;20649;-77
2023/03/28 04:03:56;;;;;;;12.70;4.93;;;-4.00;99.90;-3.70;94714.00;;;;7402882;19;20143;-77
2023/03/28 04:06:39;;;;;;;10.07;5.97;;;-4.10;99.90;-3.80;94706.00;;;;7400352;19;20267;-76
2023/03/28 04:09:07;;;;;;;9.47;5.27;;;-4.00;99.90;-3.70;94713.00;;;;7403108;19;20155;-76
2023/03/28 04:11:41;;;;;;;10.80;5.47;;;-4.00;99.90;-3.50;94648.00;;;;7402336;19;20142;-77
2023/03/28 04:14:08;;;;;;;14.10;5.50;;;-3.90;99.90;-3.60;94708.00;;;;7404290;19;20132;-76
2023/03/28 04:16:43;;;;;;;10.13;5.27;;;-3.90;99.90;-3.60;94728.00;;;;7403813;19;20935;-77
2023/03/28 04:19:12;;;;;;;14.17;5.83;;;-4.00;99.90;-3.60;94679.00;;;;7402247;19;20157;-77
2023/03/28 04:21:47;;;;;;;8.93;5.53;;;-4.00;99.90;-3.60;94690.00;;;;7401147;19;20160;-77
2023/03/28 04:24:16;;;;;;;10.37;5.17;;;-3.90;99.90;-3.60;94722.00;;;;7402089;19;20449;-77
2023/03/28 04:26:54;;;;;;;13.13;5.00;;;-3.90;99.90;-3.60;94708.00;;;;7401893;19;20475;-77
2023/03/28 04:29:29;;;;;;;12.77;6.07;;;-3.90;99.90;-3.70;94696.00;;;;7402648;19;20153;-77
2023/03/28 04:32:05;;;;;;;10.60;5.37;;;-3.90;99.90;-3.60;94717.00;;;;7403746;19;20132;-77
2023/03/28 04:34:32;;;;;;;13.70;5.03;;;-3.90;99.90;-3.70;94728.00;;;;7401734;19;20613;-76
2023/03/28 04:37:07;;;;;;;7.93;4.50;;;-4.00;99.90;-3.70;94735.00;;;;7402881;19;20147;-77
2023/03/28 04:39:35;;;;;;;13.27;4.80;;;-4.00;99.90;-3.70;94733.00;;;;7403069;19;20136;-77
2023/03/28 04:42:08;;;;;;;14.80;4.90;;;-4.00;99.90;-3.90;94740.00;;;;7401153;19;20145;-78
2023/03/28 04:44:42;;;;;;;10.43;4.53;;;-4.00;99.90;-3.80;94736.00;;;;7401952;19;20133;-77
2023/03/28 04:47:17;;;;;;;13.63;4.70;;;-4.00;99.90;-3.90;94706.00;;;;7403095;19;20578;-77
2023/03/28 04:49:45;;;;;;;11.83;4.77;;;-4.10;99.90;-4.00;94733.00;;;;7401300;19;20148;-77
2023/03/28 04:52:18;;;;;;;10.87;4.23;;;-4.10;99.90;-3.90;94708.00;;;;7401889;19;20142;-77
2023/03/28 04:54:52;;;;;;;16.40;5.07;;;-4.20;99.90;-4.00;94709.00;;;;7403184;19;20133;-77
2023/03/28 04:57:26;;;;;;;10.67;4.73;;;-4.20;99.90;-4.00;94728.00;;;;7402945;19;20135;-77
2023/03/28 05:00:00;;;;;;;8.40;4.50;;;-4.20;99.90;-4.00;94712.00;;;;7400225;19;20141;-76
2023/03/28 05:02:34;;;;;;;10.13;4.70;;;-4.20;99.90;-4.00;94685.00;;;;7400069;19;20249;-76
2023/03/28 05:05:21;;;;;;;24.93;4.77;;;-4.20;99.90;-3.90;94711.00;;;;7396943;19;20137;-77
2023/03/28 05:07:56;;;;;;;10.80;4.93;;;-4.10;99.90;-3.90;94743.00;;;;7398958;19;20602;-77
2023/03/28 05:10:23;;;;;;;11.10;4.63;;;-4.10;99.90;-3.90;94749.00;;;;7399143;19;20163;-76
2023/03/28 05:12:57;;;;;;;12.80;5.23;;;-4.00;99.90;-3.90;94751.00;;;;7397068;19;20142;-76
2023/03/28 05:15:31;;;;;;;6.80;4.13;;;-4.00;99.90;-3.80;94696.00;;;;7394834;19;20166;-77
2023/03/28 05:18:05;;;;;;;10.97;4.63;;;-4.00;99.90;-3.70;94754.00;;;;7400030;19;20859;-76
2023/03/28 05:20:39;;;;;;;16.67;4.63;;;-3.90;99.90;-3.70;94764.00;;;;7398184;19;20518;-76
2023/03/28 05:23:13;;;;;;;13.73;4.20;;;-3.80;99.90;-3.60;94761.00;;;;7393049;19;20153;-77
2023/03/28 05:25:52;;;;;;;14.43;4.47;;;-3.80;99.90;-3.50;94727.00;;;;7400962;19;20137;-76
2023/03/28 05:28:20;;;;;;;9.10;4.33;;;-3.70;99.90;-3.30;94758.00;;;;7400659;19;20618;-76
2023/03/28 05:30:54;;;;;;;14.17;5.27;;;-3.60;99.90;-3.40;94748.00;;;;7402749;19;20469;-77
2023/03/28 05:33:21;;;;;;;15.30;5.27;;;-3.60;99.90;-3.20;94747.00;;;;7401579;19;20136;-76
2023/03/28 05:35:55;;;;;;;8.83;4.87;;;-3.50;99.90;-3.00;94771.00;;;;7400701;19;20136;-76
2023/03/28 05:38:30;;;;;;;11.93;5.53;;;-3.30;99.90;-2.80;94767.00;;;;7401982;19;20139;-76
2023/03/28 05:41:04;;;;;;;15.70;5.60;;;-3.10;1.00;-2.60;94778.00;;;;7401109;19;20124;-77
2023/03/28 05:43:38;;;;;;;8.73;4.83;;;-3.00;1.00;-2.60;94769.00;;;;7401770;19;20140;-77
2023/03/28 05:46:06;;;;;;;12.97;4.87;;;-2.90;1.00;-2.50;94755.00;;;;7399548;19;20211;-76
2023/03/28 05:48:40;;;;;;;10.03;4.80;;;-2.90;1.00;-2.50;94790.00;;;;7401533;19;20140;-77
2023/03/28 05:51:07;;;;;;;14.03;5.20;;;-2.80;1.00;-2.20;94788.00;;;;7400182;19;20133;-76
2023/03/28 05:53:41;;;;;;;14.60;4.90;;;-2.70;1.00;-2.20;94776.00;;;;7401599;19;20592;-77
2023/03/28 05:56:09;;;;;;;9.73;5.37;;;-2.70;1.00;-2.30;94784.00;;;;7400595;19;20137;-77
2023/03/28 05:58:43;;;;;;;12.13;4.50;;;-2.70;1.00;-2.40;94794.00;;;;7399232;19;20166;-77
2023/03/28 06:01:17;;;;;;;11.53;4.57;;;-2.70;99.90;-2.40;94797.00;;;;7398144;19;20133;-77
2023/03/28 06:03:44;;;;;;;14.60;4.23;;;-2.80;99.90;-2.50;94786.00;;;;7399260;19;20620;-77
2023/03/28 06:06:24;;;;;;;14.00;4.37;;;-2.90;99.90;-2.40;94796.00;;;;7400143;19;20200;-77
2023/03/28 06:08:51;;;;;;;13.20;4.33;;;-2.90;99.90;-2.20;94794.00;;;;7400034;19;20151;-77
2023/03/28 06:11:25;;;;;;;15.70;4.43;;;-2.80;99.90;-2.10;94771.00;;;;7399734;19;20152;-77
2023/03/28 06:13:53;;;;;;;9.40;4.53;;;-2.70;99.90;-1.90;94804.00;;;;7399305;19;20141;-77
2023/03/28 06:16:27;;;;;;;10.33;4.90;;;-2.60;99.90;-1.60;94792.00;;;;7399967;19;20190;-77
2023/03/28 06:19:01;;;;;;;12.23;5.50;;;-2.40;99.90;-1.40;94808.00;;;;7399024;19;20619;-77
2023/03/28 06:21:43;;;;;;;10.03;5.13;;;-2.20;1.00;-0.90;94813.00;;;;7398350;19;20456;-77
2023/03/28 06:24:17;;;;;;;11.90;6.13;;;-1.90;1.00;-0.60;94806.00;;;;7399012;19;20612;-77
2023/03/28 06:26:44;;;;;;;15.40;5.57;;;-1.70;99.90;-0.50;94805.00;;;;7398594;19;20116;-77
2023/03/28 06:29:18;;;;;;;12.67;5.57;;;-1.50;99.90;-0.30;94786.00;;;;7400118;19;20141;-77
2023/03/28 06:31:45;;;;;;;11.27;5.47;;;-1.30;99.90;-0.30;94813.00;;;;7400939;19;20137;-77
2023/03/28 06:34:19;;;;;;;14.17;4.90;;;-1.20;1.00;-0.30;94743.00;;;;7399403;19;20142;-77
2023/03/28 06:36:53;;;;;;;9.07;4.53;;;-1.20;1.00;-0.50;94785.00;;;;7397687;19;20140;-78
2023/03/28 06:39:20;;;;;;;10.73;4.90;;;-1.20;99.90;-0.50;94811.00;;;;7400440;19;20133;-77
2023/03/28 06:41:54;;;;;;;11.80;4.87;;;-1.20;2.30;-0.50;94766.00;;;;7397369;19;20151;-78
2023/03/28 06:44:29;;;;;;;8.50;4.00;;;-1.30;32.80;-0.40;94779.00;;;;7399672;19;20485;-78
2023/03/28 06:47:03;;;;;;;16.20;4.80;;;-1.20;99.90;-0.30;94783.00;;;;7398097;19;20125;-78
2023/03/28 06:49:30;;;;;;;11.90;4.90;;;-1.20;99.90;0.00;94781.00;;;;7398514;19;20152;-79
2023/03/28 06:52:04;;;;;;;14.83;4.93;;;-1.10;99.90;0.30;94801.00;;;;7396528;19;20155;-78
2023/03/28 06:54:32;;;;;;;7.87;4.23;;;-1.00;99.90;0.60;94770.00;;;;7399668;19;20133;-79
2023/03/28 06:57:06;;;;;;;13.13;5.07;;;-0.90;99.90;0.80;94787.00;;;;7397707;19;20147;-79
2023/03/28 06:59:40;;;;;;;10.67;5.10;;;-0.70;1.00;1.00;94791.00;;;;7399183;19;20148;-78
2023/03/28 07:02:12;;;;;;;8.27;4.17;;;-0.50;99.90;1.60;94781.00;;;;7396329;19;20178;-78
2023/03/28 07:04:46;;;;;;;13.13;4.80;;;-0.30;99.90;1.60;94808.00;;;;7397309;19;20643;-76
2023/03/28 07:07:21;;;;;;;12.07;4.83;;;-0.20;55.50;2.00;94810.00;;;;7397297;19;20212;-76
2023/03/28 07:09:54;;;;;;;11.87;4.67;;;-0.10;1.00;2.20;94805.00;;;;7396717;19;20123;-76
2023/03/28 07:12:28;;;;;;;14.30;4.17;;;0.10;1.00;2.60;94819.00;;;;7397694;19;20148;-77
2023/03/28 07:15:02;;;;;;;9.60;3.60;;;0.30;56.30;2.60;94800.00;;;;7398867;19;20132;-76
2023/03/28 07:17:29;;;;;;;7.77;3.30;;;0.50;1.00;2.80;94811.00;;;;7392459;19;20252;-76
2023/03/28 07:20:04;;;;;;;14.43;3.70;;;0.60;99.90;2.80;94826.00;;;;7397459;19;20132;-77
2023/03/28 07:22:31;;;;;;;6.27;3.10;;;0.80;1.00;3.40;94816.00;;;;7397446;19;20134;-77
2023/03/28 07:25:06;;;;;;;6.37;2.97;;;1.00;99.90;3.20;94817.00;;;;7397038;19;20144;-77
2023/03/28 07:27:34;;;;;;;11.90;3.23;;;1.00;99.90;3.40;94827.00;;;;7399475;19;20196;-78
2023/03/28 07:30:09;;;;;;;6.70;3.17;;;1.20;1.00;2.80;94820.00;;;;7398104;19;20635;-79
2023/03/28 07:32:44;;;;;;;6.27;3.00;;;1.20;1.00;2.60;94802.00;;;;7395853;19;20853;-79
2023/03/28 07:35:29;;;;;;;6.23;3.10;;;1.30;9.30;2.90;94824.00;;;;7396773;19;20145;-80
2023/03/28 07:37:58;;;;;;;7.37;3.53;;;1.30;1.00;3.20;94795.00;;;;7397229;19;20132;-81
2023/03/28 07:40:31;;;;;;;12.00;3.53;;;1.30;99.90;3.10;94837.00;;;;7396727;19;20595;-82
2023/03/28 07:43:13;;;;;;;16.57;3.00;;;1.50;17.60;3.30;94840.00;;;;7393929;19;20137;-83
2023/03/28 07:45:54;;;;;;;5.77;2.90;;;1.70;99.90;4.20;94808.00;;;;7398772;19;20461;-82
2023/03/28 07:48:29;;;;;;;4.33;2.83;;;1.80;55.00;4.20;94814.00;;;;7396603;19;20160;-82
2023/03/28 07:50:58;;;;;;;4.40;2.60;;;2.10;1.00;4.10;94829.00;;;;7397045;19;20484;-82
2023/03/28 07:53:34;;;;;;;5.97;2.43;;;2.20;1.00;3.40;94838.00;;;;7397065;19;20152;-81
2023/03/28 07:56:02;;;;;;;8.47;2.77;;;2.50;1.00;2.90;94843.00;;;;7396445;19;20175;-82
2023/03/28 07:58:38;;;;;;;6.30;2.73;;;2.50;99.90;2.90;94843.00;;;;7396253;19;20547;-82
2023/03/28 08:01:11;;;;;;;4.17;2.20;;;2.30;1.00;2.30;94871.00;;;;7395255;19;20145;-82
2023/03/28 08:03:45;;;;;;;6.33;2.80;;;2.10;1.00;3.30;94817.00;;;;7395397;19;20152;-83
2023/03/28 08:06:19;;;;;;;8.40;2.60;;;;;3.10;94856.00;;;;7394277;19;20177;-82
2023/03/28 08:09:06;;;;;;;8.10;2.73;;;2.10;99.90;3.40;94837.00;;;;7395957;19;20133;-82
2023/03/28 08:11:42;;;;;;;5.10;1.97;;;2.30;99.90;3.00;94852.00;;;;7397093;19;20140;-82
2023/03/28 08:14:17;;;;;;;6.30;2.10;;;2.20;99.90;2.30;94879.00;;;;7395601;19;20179;-81
2023/03/28 08:16:51;;;;;;;5.47;2.10;;;1.90;99.90;2.30;94855.00;;;;7395902;19;20524;-81
2023/03/28 08:19:24;;;;;;;7.23;2.10;;;1.80;99.90;3.80;94824.00;;;;7396761;19;20181;-83
2023/03/28 08:22:01;;;;;;;3.43;2.07;;;2.30;99.90;4.50;94822.00;;;;7397597;19;20137;-81
2023/03/28 08:24:35;;;;;;;6.77;1.97;;;2.90;99.90;5.50;94840.00;;;;7403199;19;20639;-81
2023/03/28 08:27:03;;;;;;;6.23;2.20;;;3.40;99.90;5.50;94840.00;;;;7404722;19;20522;-81
2023/03/28 08:29:37;;;;;;;4.33;1.63;;;3.80;99.90;6.20;94848.00;;;;7403664;19;20136;-80
2023/03/28 08:32:11;;;;;;;4.87;1.57;;;4.40;1.00;6.60;94845.00;;;;7401989;19;20507;-80
2023/03/28 08:34:45;;;;;;;4.13;1.40;;;4.70;1.00;4.20;94842.00;;;;7402272;19;20153;-79
2023/03/28 08:37:12;;;;;;;3.33;1.70;;;4.70;1.00;3.60;94855.00;;;;7404254;19;20136;-79
2023/03/28 08:39:46;;;;;;;5.57;1.50;;;4.60;1.00;3.90;94866.00;;;;7402070;19;20607;-79
2023/03/28 08:42:29;;;;;;;4.97;1.43;;;4.40;1.00;3.70;94860.00;;;;7401165;19;20137;-79
2023/03/28 08:45:18;;;;;;;3.27;1.20;;;4.20;1.00;4.30;94861.00;;;;7402076;19;20163;-79
2023/03/28 08:48:10;;;;;;;3.53;1.40;;;4.10;1.00;5.30;94854.00;;;;7403048;19;20608;-79
2023/03/28 08:51:12;;;;;;;1.93;1.07;;;4.40;1.00;5.40;94826.00;;;;7401899;19;20610;-79
2023/03/28 08:54:12;;;;;;;4.97;1.40;;;4.70;1.00;5.30;94867.00;;;;7401899;19;20137;-78
2023/03/28 08:56:45;;;;;;;4.43;1.20;;;4.10;1.00;5.30;94858.00;;;;7401315;19;20148;-78
2023/03/28 08:59:48;;;;;;;4.87;1.20;;;4.00;1.00;4.70;94851.00;;;;7403277;19;20543;-78
2023/03/28 09:02:26;;;;;;;3.33;1.80;;;3.70;1.00;3.80;94842.00;;;;7399485;19;20176;-77
2023/03/28 09:04:57;;;;;;;2.87;1.43;;;2.90;1.00;3.80;94839.00;;;;7401606;19;20152;-77
2023/03/28 09:08:24;;;;;;;2.93;1.50;;;2.90;1.00;3.70;94871.00;;;;7401209;19;20175;-78
2023/03/28 09:11:23;;;;;;;4.80;1.63;;;3.00;1.00;4.60;94850.00;;;;7400504;19;20481;-78
2023/03/28 09:14:17;;;;;;;16.70;10.97;;;3.20;1.00;6.60;94845.00;;;;7400958;19;20144;-77
2023/03/28 09:17:08;;;;;;;3.77;1.47;;;4.30;1.00;8.10;94851.00;;;;7400966;19;20607;-78
2023/03/28 09:20:10;;;;;;;5.83;1.50;;;5.50;99.90;8.00;94856.00;;;;7400961;19;20193;-78
2023/03/28 09:23:15;;;;;;;2.77;1.30;;;6.30;1.00;8.10;94860.00;;;;7399384;19;20192;-78
2023/03/28 09:26:13;;;;;;;3.10;1.30;;;6.30;1.00;8.20;94851.00;;;;7400693;19;20133;-78
2023/03/28 09:29:03;;;;;;;1.97;1.37;;;6.30;1.00;8.50;94853.00;;;;7402807;19;20133;-77
2023/03/28 09:31:44;;;;;;;1.63;1.02;;;6.40;1.00;7.30;94865.00;;;;7401832;19;20136;-78
2023/03/28 09:34:29;;;;;;;3.00;1.02;;;6.90;1.00;8.60;94867.00;;;;7398896;19;20155;-78
2023/03/28 09:37:37;;;;;;;5.38;1.30;;;7.40;1.00;9.40;94852.00;;;;7400125;19;20129;-78
2023/03/28 09:40:33;;;;;;;3.75;1.42;;;7.20;1.00;8.60;94837.00;;;;7400109;19;20140;-77
2023/03/28 09:43:28;;;;;;;3.08;1.30;;;7.60;1.00;10.10;94839.00;;;;7397837;19;20140;-78
2023/03/28 09:46:25;;;;;;;2.92;1.40;;;8.60;1.00;11.80;94834.00;;;;7401570;19;20623;-78
2023/03/28 09:48:59;;;;;;;4.97;2.13;;;;;11.80;94836.00;;;;7400477;19;20161;-78
2023/03/28 09:51:33;;;;;;;4.53;1.40;;;;;11.90;94829.00;;;;7400760;19;20125;-78
2023/03/28 09:54:08;;;;;;;3.80;1.75;;;;;12.50;94834.00;;;;7400205;19;20149;-77
2023/03/28 09:56:44;;;;;;;4.25;1.58;;;;;12.60;94837.00;;;;7399610;19;20140;-77
2023/03/28 09:59:31;;;;;;;2.97;1.60;;;;;10.90;94840.00;;;;7399857;19;20200;-77
2023/03/28 10:02:01;;;;;;;2.63;1.33;;;;;11.00;94835.00;;;;7397562;19;20141;-77
2023/03/28 10:04:37;;;;;;;3.08;1.25;;;;;10.90;94828.00;;;;7399169;19;20136;-77
2023/03/28 10:07:18;;;;;;;4.22;1.20;;;;;11.20;94834.00;;;;7399550;19;20148;-77
2023/03/28 10:10:15;;;;;;;4.13;1.20;;;;;11.90;94830.00;;;;7390142;19;20124;-77
2023/03/28 10:13:01;;;;;;;5.10;1.55;;;;;12.00;94840.00;;;;7392826;19;20135;-77
2023/03/28 10:15:46;;;;;;;3.65;1.00;;;;;11.50;94837.00;;;;7394008;19;20141;-77
2023/03/28 10:18:24;;;;;;;2.17;1.00;;;;;10.90;94845.00;;;;7393913;19;20129;-77
2023/03/28 10:21:25;;;;;;;2.25;1.15;;;;;11.30;94850.00;;;;7391541;19;20500;-77
2023/03/28 10:24:03;;;;;;;2.85;1.65;;;;;12.20;94854.00;;;;7391389;19;20152;-77
2023/03/28 10:26:36;;;;;;;3.03;1.33;;;;;11.90;94829.00;;;;7392464;19;20132;-77
2023/03/28 10:29:13;;;;;;;3.13;1.38;;;;;12.80;94832.00;;;;7394462;19;20132;-77
2023/03/28 10:31:48;;;;;;;5.47;1.48;;;;;12.20;94834.00;;;;7393651;19;20137;-77
2023/03/28 10:34:28;;;;;;;2.88;1.27;;;;;12.50;94821.00;;;;7392185;19;20160;-77
2023/03/28 10:36:56;;;;;;;5.70;1.40;;;;;12.90;94824.00;;;;7393680;19;20133;-77
2023/03/28 10:39:32;;;;;;;2.10;1.13;;;;;12.10;94850.00;;;;7392065;19;20128;-77
2023/03/28 10:42:00;;;;;;;6.18;1.60;;;;;11.90;94835.00;;;;7391444;19;20152;-77
2023/03/28 10:44:35;;;;;;;2.83;1.17;;;;;12.20;94832.00;;;;7390141;19;20171;-77
2023/03/28 10:47:17;;;;;;;2.72;1.13;;;;;11.80;94853.00;;;;7391195;19;20155;-77
2023/03/28 10:49:47;;;;;;;4.20;1.65;;;;;10.60;94849.00;;;;7393308;19;20136;-77
2023/03/28 10:52:43;;;;;;;5.70;1.60;;;;;11.50;94838.00;;;;7392163;19;20458;-77
2023/03/28 10:55:18;;;;;;;1.90;1.20;;;;;11.30;94828.00;;;;7391414;19;20144;-77
2023/03/28 10:58:25;;;;;;;4.88;1.50;;;;;11.80;94823.00;;;;7393035;19;20141;-78
2023/03/28 11:01:10;;;;;;;4.10;1.40;;;;;12.80;94820.00;;;;7393020;19;20144;-77
2023/03/28 11:04:20;;;;;;;5.68;1.30;;;;;12.20;94823.00;;;;7390266;19;20144;-77
2023/03/28 11:07:31;;;;;;;3.08;1.10;;;;;12.20;94825.00;;;;7387709;19;20162;-77
2023/03/28 11:10:33;;;;;;;1.35;1.10;;;;;11.40;94821.00;;;;7389054;19;20145;-77
2023/03/28 11:13:04;;;;;;;1.77;1.20;;;;;11.60;94813.00;;;;7390570;19;20153;-77
2023/03/28 11:16:12;;;;;;;3.58;1.40;;;;;11.80;94803.00;;;;7391165;19;20144;-77
2023/03/28 11:19:08;;;;;;;1.48;1.30;;;;;12.80;94823.00;;;;7390342;19;20165;-77
2023/03/28 11:21:57;;;;;;;3.13;1.30;;;;;13.50;94804.00;;;;7390342;19;20208;-77
2023/03/28 11:25:15;;;;;;;1.88;1.05;;;;;13.30;94809.00;;;;7391987;19;20147;-77
2023/03/28 11:27:56;;;;;;;4.38;1.58;;;;;12.70;94814.00;;;;7388072;19;20605;-78
2023/03/28 11:30:36;;;;;;;5.15;1.35;;;;;11.50;94801.00;;;;7380137;19;20148;-77
2023/03/28 11:33:12;;;;;;;3.40;1.02;;;;;11.40;94812.00;;;;7388467;19;20137;-77
2023/03/28 11:35:53;;;;;;;1.77;1.05;;;;;11.00;94808.00;;;;7390149;19;20591;-77
2023/03/28 11:38:55;;;;;;;2.15;1.20;;;;;10.70;94806.00;;;;7391598;19;20125;-77
2023/03/28 11:41:29;;;;;;;4.88;1.55;;;;;10.60;94806.00;;;;7388606;19;20141;-77
2023/03/28 11:44:27;;;;;;;3.38;1.38;;;;;10.00;94811.00;;;;7387464;19;20132;-78
2023/03/28 11:47:11;;;;;;;3.40;1.40;;;;;8.90;94811.00;;;;7391894;19;20612;-76
2023/03/28 11:50:17;;;;;;;2.85;1.35;;;;;9.80;94797.00;;;;7390881;19;20153;-77
2023/03/28 11:52:52;;;;;;;2.35;1.33;;;;;9.80;94802.00;;;;7387999;19;20156;-77
2023/03/28 11:55:32;;;;;;;3.50;1.17;;;;;10.10;94793.00;;;;7391059;19;20141;-76
2023/03/28 11:58:02;;;;;;;3.67;1.58;;;;;10.30;94803.00;;;;7396270;19;20464;-77
2023/03/28 12:00:47;;;;;;;2.00;1.20;;;;;9.60;94799.00;;;;7398626;19;20137;-77
2023/03/28 12:04:06;;;;;;;2.35;1.10;;;;;9.30;94793.00;;;;7394335;19;20183;-77
2023/03/28 12:06:59;;;;;;;4.57;1.20;;;;;9.60;94794.00;;;;7397365;19;20153;-78
2023/03/28 12:10:26;;;;;;;4.95;1.30;;;;;10.20;94784.00;;;;7396434;19;20460;-77
2023/03/28 12:13:47;;;;;;;3.40;1.27;;;;;9.60;94776.00;;;;7394100;19;20978;-77
2023/03/28 12:16:44;;;;;;;3.42;1.27;;;;;10.10;94755.00;;;;7393357;19;20137;-76